RAM1401 GMFO-GMMN
Flight info
| Callsign | RAM1401 |
|---|---|
| Flight time | N/A |
| Altitude | 32000 |
| Route | ROMOR UA411 DOTIV/N0425F340 UA411 FES UR975 SADIC |
| Aircraft | E190/M-SDE3GILORVW/S |
Departure
| Time | N/A |
|---|---|
| Airport | Oujda Angads Airport (GMFO) |
Arrival
| Time | 2026-04-29 20:21 |
|---|---|
| Airport | Mohammed V International Airport (GMMN) |
| Time | Latitude | Longitude | Altitude | Speed | Heading |
|---|---|---|---|---|---|
| 2026-04-29 20:11 | 33.15736 | -7.27943 | 3529 ft | 268 kts | 248° |
| 2026-04-29 20:11 | 33.15475 | -7.30112 | 3544 ft | 266 kts | 277° |
| 2026-04-29 20:11 | 33.15811 | -7.32269 | 3592 ft | 260 kts | 283° |
| 2026-04-29 20:12 | 33.16216 | -7.34310 | 3555 ft | 245 kts | 284° |
| 2026-04-29 20:12 | 33.16615 | -7.36231 | 3528 ft | 232 kts | 284° |
| 2026-04-29 20:12 | 33.17003 | -7.38042 | 3517 ft | 219 kts | 285° |
| 2026-04-29 20:12 | 33.17378 | -7.39745 | 3489 ft | 206 kts | 285° |
| 2026-04-29 20:13 | 33.17737 | -7.41355 | 3491 ft | 196 kts | 285° |
| 2026-04-29 20:13 | 33.17964 | -7.42374 | 3530 ft | 189 kts | 285° |
| 2026-04-29 20:13 | 33.18414 | -7.44376 | 3573 ft | 189 kts | 285° |
| 2026-04-29 20:13 | 33.18755 | -7.45898 | 3578 ft | 190 kts | 285° |
| 2026-04-29 20:14 | 33.19087 | -7.47395 | 3556 ft | 180 kts | 285° |
| 2026-04-29 20:14 | 33.19396 | -7.48779 | 3520 ft | 165 kts | 285° |
| 2026-04-29 20:14 | 33.19678 | -7.50036 | 3458 ft | 149 kts | 286° |
| 2026-04-29 20:14 | 33.19942 | -7.51180 | 3473 ft | 138 kts | 287° |
| 2026-04-29 20:15 | 33.20198 | -7.52270 | 3565 ft | 138 kts | 286° |
| 2026-04-29 20:15 | 33.20517 | -7.53357 | 3586 ft | 140 kts | 305° |
| 2026-04-29 20:15 | 33.21329 | -7.53899 | 3589 ft | 140 kts | 348° |
| 2026-04-29 20:15 | 33.22264 | -7.54208 | 3581 ft | 139 kts | 344° |
| 2026-04-29 20:16 | 33.23108 | -7.54515 | 3586 ft | 139 kts | 342° |
| 2026-04-29 20:17 | 33.23982 | -7.54855 | 3623 ft | 140 kts | 341° |
| 2026-04-29 20:18 | 33.24902 | -7.55242 | 3572 ft | 140 kts | 340° |
| 2026-04-29 20:18 | 33.25819 | -7.55620 | 3411 ft | 139 kts | 342° |
| 2026-04-29 20:18 | 33.26740 | -7.55937 | 3231 ft | 136 kts | 346° |
| 2026-04-29 20:18 | 33.27653 | -7.56228 | 3003 ft | 135 kts | 346° |
| 2026-04-29 20:19 | 33.28553 | -7.56506 | 2747 ft | 131 kts | 347° |
| 2026-04-29 20:19 | 33.29428 | -7.56771 | 2414 ft | 130 kts | 347° |
| 2026-04-29 20:19 | 33.30297 | -7.57027 | 2001 ft | 127 kts | 346° |
| 2026-04-29 20:19 | 33.31130 | -7.57294 | 1662 ft | 122 kts | 343° |
| 2026-04-29 20:20 | 33.31914 | -7.57590 | 1342 ft | 116 kts | 342° |
| 2026-04-29 20:20 | 33.32678 | -7.57870 | 1125 ft | 120 kts | 346° |
| 2026-04-29 20:20 | 33.33450 | -7.58097 | 1013 ft | 113 kts | 347° |
| 2026-04-29 20:20 | 33.34215 | -7.58344 | 882 ft | 114 kts | 344° |
| 2026-04-29 20:21 | 33.34980 | -7.58608 | 734 ft | 114 kts | 345° |
| 2026-04-29 20:21 | 33.35644 | -7.58829 | 649 ft | 58 kts | 345° |
| 2026-04-29 20:21 | 33.35737 | -7.58862 | 651 ft | 1 kts | 344° |
| 2026-04-29 20:21 | 33.35780 | -7.58877 | 649 ft | 11 kts | 344° |
| 2026-04-29 20:22 | 33.35876 | -7.58909 | 651 ft | 16 kts | 344° |
| 2026-04-29 20:22 | 33.34713 | -7.58517 | 789 ft | 108 kts | 345° |
| 2026-04-29 20:22 | 33.35241 | -7.58697 | 675 ft | 111 kts | 345° |
| 2026-04-29 20:22 | 33.33960 | -7.58257 | 941 ft | 111 kts | 345° |
| 2026-04-29 20:23 | 33.34725 | -7.58521 | 787 ft | 115 kts | 345° |
| 2026-04-29 20:23 | 33.35469 | -7.58775 | 651 ft | 96 kts | 345° |
| 2026-04-29 20:23 | 33.31177 | -7.57310 | 1633 ft | 121 kts | 343° |
| 2026-04-29 20:24 | 33.31710 | -7.57510 | 1369 ft | 119 kts | 343° |
| 2026-04-29 20:24 | 33.32489 | -7.57792 | 1224 ft | 117 kts | 345° |
| 2026-04-29 20:25 | 33.33284 | -7.58058 | 1113 ft | 120 kts | 345° |
| 2026-04-29 20:25 | 33.34102 | -7.58322 | 937 ft | 122 kts | 345° |
| 2026-04-29 20:25 | 33.34921 | -7.58597 | 744 ft | 123 kts | 345° |
| 2026-04-29 20:25 | 33.35704 | -7.58857 | 650 ft | 103 kts | 345° |
| 2026-04-29 20:26 | 33.36281 | -7.59046 | 651 ft | 64 kts | 343° |
| 2026-04-29 20:26 | 33.36520 | -7.59071 | 649 ft | 30 kts | 7° |
| 2026-04-29 20:26 | 33.31255 | -7.57338 | 1593 ft | 29 kts | 343° |
| 2026-04-29 20:26 | 33.34465 | -7.58443 | 838 ft | 123 kts | 345° |
| 2026-04-29 20:27 | 33.35285 | -7.58718 | 677 ft | 120 kts | 346° |
| 2026-04-29 20:27 | 33.35778 | -7.58879 | 649 ft | 100 kts | 346° |
| 2026-04-29 20:27 | 33.35554 | -7.58808 | 652 ft | 110 kts | 345° |
| 2026-04-29 20:27 | 33.34687 | -7.58518 | 799 ft | 120 kts | 345° |
| 2026-04-29 20:28 | 33.35512 | -7.58794 | 660 ft | 112 kts | 345° |
| 2026-04-29 20:28 | 33.36160 | -7.59005 | 651 ft | 76 kts | 345° |
| 2026-04-29 20:28 | 33.35164 | -7.58678 | 692 ft | 118 kts | 345° |
| 2026-04-29 20:28 | 33.33795 | -7.58224 | 1011 ft | 122 kts | 345° |
| 2026-04-29 20:29 | 33.32510 | -7.57800 | 1220 ft | 108 kts | 345° |
| 2026-04-29 20:29 | 33.32538 | -7.57809 | 1215 ft | 118 kts | 345° |
| 2026-04-29 20:29 | 33.33326 | -7.58072 | 1102 ft | 120 kts | 345° |
| 2026-04-29 20:29 | 33.34142 | -7.58335 | 926 ft | 123 kts | 345° |
| 2026-04-29 20:30 | 33.34962 | -7.58611 | 736 ft | 123 kts | 346° |
| 2026-04-29 20:30 | 33.35740 | -7.58868 | 650 ft | 102 kts | 346° |
| 2026-04-29 20:30 | 33.36303 | -7.59054 | 652 ft | 59 kts | 343° |
| 2026-04-29 20:30 | 33.36532 | -7.59069 | 649 ft | 30 kts | 11° |
| 2026-04-29 20:31 | 33.36727 | -7.59007 | 651 ft | 28 kts | 14° |
| 2026-04-29 20:31 | 33.31824 | -7.57552 | 1342 ft | 118 kts | 344° |
| 2026-04-29 20:31 | 33.31412 | -7.57396 | 1492 ft | 118 kts | 343° |
| 2026-04-29 20:31 | 33.31458 | -7.57414 | 1467 ft | 117 kts | 343° |
| 2026-04-29 20:32 | 33.32234 | -7.57715 | 1197 ft | 117 kts | 346° |
| 2026-04-29 20:32 | 33.33000 | -7.57950 | 1074 ft | 112 kts | 346° |
| 2026-04-29 20:32 | 33.33789 | -7.58210 | 1003 ft | 115 kts | 344° |
| 2026-04-29 20:32 | 33.34308 | -7.58393 | 844 ft | 116 kts | 345° |
| 2026-04-29 20:33 | 33.35337 | -7.58738 | 670 ft | 112 kts | 345° |
| 2026-04-29 20:33 | 33.35974 | -7.58946 | 650 ft | 73 kts | 343° |
| 2026-04-29 20:33 | 33.36292 | -7.59051 | 652 ft | 32 kts | 346° |
| 2026-04-29 20:33 | 33.36472 | -7.59077 | 651 ft | 25 kts | 5° |
| 2026-04-29 20:34 | 33.36579 | -7.59054 | 651 ft | 0 kts | 12° |
| 2026-04-29 20:34 | 33.31255 | -7.57338 | 1513 ft | 118 kts | 343° |
| 2026-04-29 20:34 | 33.31323 | -7.57365 | 1548 ft | 120 kts | 343° |
| 2026-04-29 20:34 | 33.32119 | -7.57668 | 1282 ft | 118 kts | 344° |
| 2026-04-29 20:35 | 33.32891 | -7.57918 | 1099 ft | 114 kts | 346° |
| 2026-04-29 20:35 | 33.33658 | -7.58167 | 980 ft | 113 kts | 345° |
| 2026-04-29 20:35 | 33.34423 | -7.58424 | 825 ft | 115 kts | 346° |
| 2026-04-29 20:35 | 33.35182 | -7.58680 | 686 ft | 114 kts | 345° |
| 2026-04-29 20:36 | 33.35888 | -7.58917 | 650 ft | 93 kts | 343° |
| 2026-04-29 20:36 | 33.36368 | -7.59081 | 623 ft | 39 kts | 345° |
| 2026-04-29 20:36 | 33.36596 | -7.59054 | 653 ft | 32 kts | 13° |